TRA11Y EHAM-GCLP
Flight info
| Callsign | TRA11Y |
|---|---|
| Flight time | 4h 15m |
| Altitude | 34000 |
| Route | IDRID L980 MANGO L620 SAM/N0455F330 M195 LORKU DCT BALDA/N0453F350 DCT ABUPI DCT BEXAL DCT SAMAR |
| Aircraft | B738/M-SDE2E3FGHIRWXY/LB1 |
Departure
| Time | 2026-04-28 11:20 |
|---|---|
| Airport | Amsterdam Airport Schiphol (EHAM) |
Arrival
| Time | 2026-04-28 15:35 |
|---|---|
| Airport | Gran Canaria Airport (GCLP) |
| Time | Latitude | Longitude | Altitude | Speed | Heading |
|---|---|---|---|---|---|
| 2026-04-28 10:56 | 52.30506 | 4.76806 | -2 ft | 0 kts | 314° |
| 2026-04-28 11:07 | 52.30502 | 4.76813 | -2 ft | 2 kts | 314° |
| 2026-04-28 11:07 | 52.30488 | 4.76836 | -2 ft | 3 kts | 314° |
| 2026-04-28 11:08 | 52.30474 | 4.76860 | -2 ft | 3 kts | 313° |
| 2026-04-28 11:08 | 52.30461 | 4.76883 | -2 ft | 2 kts | 312° |
| 2026-04-28 11:08 | 52.30452 | 4.76899 | -2 ft | 3 kts | 300° |
| 2026-04-28 11:08 | 52.30448 | 4.76922 | -2 ft | 3 kts | 245° |
| 2026-04-28 11:09 | 52.30454 | 4.76938 | -2 ft | 2 kts | 231° |
| 2026-04-28 11:09 | 52.30465 | 4.76959 | -2 ft | 3 kts | 212° |
| 2026-04-28 11:09 | 52.30476 | 4.76968 | -2 ft | 2 kts | 197° |
| 2026-04-28 11:09 | 52.30494 | 4.76972 | -2 ft | 3 kts | 169° |
| 2026-04-28 11:10 | 52.30513 | 4.76962 | -2 ft | 3 kts | 152° |
| 2026-04-28 11:10 | 52.30528 | 4.76947 | -2 ft | 2 kts | 148° |
| 2026-04-28 11:10 | 52.30530 | 4.76945 | -2 ft | 1 kts | 148° |
| 2026-04-28 11:13 | 52.30530 | 4.76946 | -2 ft | 1 kts | 148° |
| 2026-04-28 11:13 | 52.30512 | 4.76963 | -2 ft | 6 kts | 154° |
| 2026-04-28 11:14 | 52.30454 | 4.76935 | -2 ft | 12 kts | 229° |
| 2026-04-28 11:14 | 52.30397 | 4.76789 | -2 ft | 18 kts | 238° |
| 2026-04-28 11:14 | 52.30330 | 4.76612 | -2 ft | 18 kts | 237° |
| 2026-04-28 11:14 | 52.30263 | 4.76440 | -2 ft | 18 kts | 238° |
| 2026-04-28 11:15 | 52.30197 | 4.76267 | -2 ft | 18 kts | 238° |
| 2026-04-28 11:15 | 52.30134 | 4.76100 | -2 ft | 17 kts | 238° |
| 2026-04-28 11:15 | 52.30072 | 4.75939 | -2 ft | 16 kts | 238° |
| 2026-04-28 11:15 | 52.30007 | 4.75769 | -2 ft | 19 kts | 238° |
| 2026-04-28 11:16 | 52.29928 | 4.75566 | -2 ft | 22 kts | 238° |
| 2026-04-28 11:16 | 52.29846 | 4.75352 | -2 ft | 22 kts | 242° |
| 2026-04-28 11:16 | 52.29876 | 4.75132 | -2 ft | 21 kts | 311° |
| 2026-04-28 11:16 | 52.29974 | 4.74949 | -2 ft | 22 kts | 311° |
| 2026-04-28 11:17 | 52.30084 | 4.74747 | 1 ft | 24 kts | 311° |
| 2026-04-28 11:17 | 52.30193 | 4.74545 | 9 ft | 23 kts | 311° |
| 2026-04-28 11:17 | 52.30296 | 4.74353 | 6 ft | 22 kts | 311° |
| 2026-04-28 11:17 | 52.30385 | 4.74186 | -2 ft | 16 kts | 311° |
| 2026-04-28 11:18 | 52.30418 | 4.74028 | -2 ft | 16 kts | 248° |
| 2026-04-28 11:18 | 52.30409 | 4.73857 | -3 ft | 14 kts | 274° |
| 2026-04-28 11:18 | 52.30464 | 4.73764 | -4 ft | 10 kts | 356° |
| 2026-04-28 11:18 | 52.30491 | 4.73765 | -4 ft | 0 kts | 2° |
| 2026-04-28 11:19 | 52.30532 | 4.73768 | -4 ft | 22 kts | 3° |
| 2026-04-28 11:19 | 52.30925 | 4.73805 | -2 ft | 89 kts | 3° |
| 2026-04-28 11:20 | 52.31745 | 4.73880 | -3 ft | 145 kts | 4° |
| 2026-04-28 11:20 | 52.32874 | 4.73982 | 301 ft | 166 kts | 7° |
| 2026-04-28 11:20 | 52.34011 | 4.74188 | 1082 ft | 170 kts | 20° |
| 2026-04-28 11:20 | 52.35118 | 4.74931 | 1797 ft | 174 kts | 26° |
| 2026-04-28 11:21 | 52.36279 | 4.75788 | 2295 ft | 195 kts | 28° |
| 2026-04-28 11:21 | 52.37339 | 4.77278 | 2595 ft | 211 kts | 63° |
| 2026-04-28 11:21 | 52.37512 | 4.79663 | 3055 ft | 218 kts | 99° |
| 2026-04-28 11:21 | 52.37130 | 4.82095 | 3713 ft | 222 kts | 113° |
| 2026-04-28 11:22 | 52.36157 | 4.84052 | 4378 ft | 228 kts | 142° |
| 2026-04-28 11:22 | 52.34620 | 4.84984 | 4782 ft | 246 kts | 172° |
| 2026-04-28 11:22 | 52.32888 | 4.85063 | 5353 ft | 253 kts | 179° |
| 2026-04-28 11:22 | 52.31062 | 4.84991 | 5731 ft | 271 kts | 180° |
| 2026-04-28 11:23 | 52.29160 | 4.84915 | 6427 ft | 275 kts | 180° |
| 2026-04-28 11:23 | 52.27255 | 4.84581 | 7183 ft | 278 kts | 198° |
| 2026-04-28 11:23 | 52.25625 | 4.82975 | 7845 ft | 282 kts | 226° |
| 2026-04-28 11:23 | 52.24562 | 4.80273 | 8534 ft | 286 kts | 246° |
| 2026-04-28 11:24 | 52.23803 | 4.77250 | 9260 ft | 289 kts | 249° |
| 2026-04-28 11:24 | 52.23091 | 4.74160 | 9981 ft | 292 kts | 250° |
| 2026-04-28 11:24 | 52.22382 | 4.71030 | 10628 ft | 297 kts | 249° |
| 2026-04-28 11:24 | 52.21654 | 4.67836 | 10829 ft | 318 kts | 249° |
| 2026-04-28 11:25 | 52.20854 | 4.64366 | 11006 ft | 338 kts | 249° |
| 2026-04-28 11:25 | 52.19996 | 4.60675 | 11183 ft | 357 kts | 249° |
| 2026-04-28 11:25 | 52.19093 | 4.56828 | 11624 ft | 366 kts | 249° |
| 2026-04-28 11:25 | 52.18180 | 4.52954 | 12278 ft | 368 kts | 249° |
| 2026-04-28 11:26 | 52.17257 | 4.49058 | 12998 ft | 368 kts | 249° |
| 2026-04-28 11:26 | 52.16328 | 4.45151 | 13667 ft | 370 kts | 248° |
| 2026-04-28 11:26 | 52.15395 | 4.41238 | 14300 ft | 373 kts | 248° |
| 2026-04-28 11:26 | 52.14450 | 4.37290 | 14870 ft | 375 kts | 249° |
| 2026-04-28 11:27 | 52.13508 | 4.33356 | 15421 ft | 378 kts | 249° |
| 2026-04-28 11:27 | 52.12534 | 4.29301 | 15990 ft | 381 kts | 249° |
| 2026-04-28 11:27 | 52.11574 | 4.25310 | 16548 ft | 384 kts | 249° |
| 2026-04-28 11:27 | 52.10630 | 4.21393 | 17094 ft | 386 kts | 249° |
| 2026-04-28 11:28 | 52.09644 | 4.17310 | 17612 ft | 390 kts | 249° |
| 2026-04-28 11:28 | 52.08643 | 4.13170 | 18127 ft | 393 kts | 249° |
| 2026-04-28 11:28 | 52.07642 | 4.09037 | 18656 ft | 396 kts | 249° |
| 2026-04-28 11:28 | 52.06625 | 4.04848 | 19129 ft | 398 kts | 249° |
| 2026-04-28 11:29 | 52.05604 | 4.00654 | 19595 ft | 400 kts | 249° |
| 2026-04-28 11:29 | 52.04578 | 3.96443 | 20040 ft | 403 kts | 249° |
| 2026-04-28 11:29 | 52.03892 | 3.93631 | 20348 ft | 404 kts | 249° |
| 2026-04-28 11:29 | 52.02498 | 3.87932 | 20970 ft | 407 kts | 249° |
| 2026-04-28 11:30 | 52.01465 | 3.83717 | 21403 ft | 409 kts | 248° |
| 2026-04-28 11:30 | 51.99337 | 3.75063 | 22221 ft | 415 kts | 248° |
| 2026-04-28 11:30 | 51.98262 | 3.70703 | 22658 ft | 416 kts | 248° |
| 2026-04-28 11:31 | 51.97183 | 3.66335 | 23054 ft | 419 kts | 248° |
| 2026-04-28 11:31 | 51.96092 | 3.61930 | 23422 ft | 422 kts | 248° |
| 2026-04-28 11:31 | 51.94990 | 3.57486 | 23812 ft | 425 kts | 248° |
| 2026-04-28 11:31 | 51.93888 | 3.53050 | 24149 ft | 426 kts | 248° |
| 2026-04-28 11:32 | 51.92775 | 3.48583 | 24475 ft | 428 kts | 248° |
| 2026-04-28 11:32 | 51.91655 | 3.44093 | 24775 ft | 431 kts | 248° |
| 2026-04-28 11:32 | 51.90525 | 3.39575 | 25103 ft | 432 kts | 248° |
| 2026-04-28 11:32 | 51.89409 | 3.35117 | 25427 ft | 434 kts | 248° |
| 2026-04-28 11:33 | 51.88273 | 3.30587 | 25728 ft | 436 kts | 248° |
| 2026-04-28 11:33 | 51.87124 | 3.26016 | 25996 ft | 438 kts | 248° |
| 2026-04-28 11:33 | 51.85971 | 3.21442 | 26303 ft | 440 kts | 248° |
| 2026-04-28 11:33 | 51.84978 | 3.16744 | 26604 ft | 442 kts | 255° |
| 2026-04-28 11:34 | 51.84437 | 3.11836 | 26856 ft | 445 kts | 263° |
| 2026-04-28 11:34 | 51.84138 | 3.06843 | 27102 ft | 447 kts | 264° |
| 2026-04-28 11:34 | 51.83856 | 3.01828 | 27356 ft | 449 kts | 264° |
| 2026-04-28 11:34 | 51.83564 | 2.96777 | 27624 ft | 451 kts | 264° |
| 2026-04-28 11:35 | 51.83255 | 2.91722 | 27867 ft | 453 kts | 264° |
| 2026-04-28 11:35 | 51.82933 | 2.86693 | 28070 ft | 456 kts | 263° |
| 2026-04-28 11:35 | 51.82597 | 2.81595 | 28317 ft | 458 kts | 263° |
| 2026-04-28 11:35 | 51.82255 | 2.76461 | 28643 ft | 458 kts | 263° |
| 2026-04-28 11:36 | 51.81914 | 2.71358 | 28999 ft | 457 kts | 263° |
| 2026-04-28 11:36 | 51.81569 | 2.66241 | 29319 ft | 457 kts | 263° |
| 2026-04-28 11:36 | 51.81220 | 2.61123 | 29666 ft | 457 kts | 263° |
| 2026-04-28 11:36 | 51.80868 | 2.56018 | 30019 ft | 456 kts | 263° |
| 2026-04-28 11:37 | 51.80634 | 2.52638 | 30216 ft | 456 kts | 263° |
| 2026-04-28 11:37 | 51.80278 | 2.47537 | 30281 ft | 461 kts | 263° |
| 2026-04-28 11:37 | 51.79261 | 2.35553 | 30416 ft | 465 kts | 254° |
| 2026-04-28 11:38 | 51.78626 | 2.32182 | 30594 ft | 465 kts | 251° |
| 2026-04-28 11:38 | 51.77589 | 2.27235 | 30892 ft | 463 kts | 250° |
| 2026-04-28 11:38 | 51.76526 | 2.22344 | 31234 ft | 461 kts | 250° |
| 2026-04-28 11:38 | 51.75461 | 2.17470 | 31576 ft | 458 kts | 250° |
| 2026-04-28 11:39 | 51.74427 | 2.12694 | 31858 ft | 457 kts | 250° |
| 2026-04-28 11:39 | 51.73381 | 2.07804 | 32025 ft | 459 kts | 251° |
| 2026-04-28 11:39 | 51.72346 | 2.02926 | 32222 ft | 460 kts | 251° |
| 2026-04-28 11:39 | 51.71317 | 1.98050 | 32482 ft | 459 kts | 251° |
| 2026-04-28 11:40 | 51.70292 | 1.93185 | 32778 ft | 457 kts | 251° |
| 2026-04-28 11:40 | 51.69268 | 1.88324 | 32968 ft | 459 kts | 251° |
| 2026-04-28 11:40 | 51.68238 | 1.83449 | 33151 ft | 459 kts | 251° |
| 2026-04-28 11:40 | 51.67206 | 1.78578 | 33405 ft | 458 kts | 251° |
| 2026-04-28 11:41 | 51.66188 | 1.73781 | 33676 ft | 457 kts | 251° |
| 2026-04-28 11:41 | 51.65156 | 1.68936 | 33854 ft | 458 kts | 250° |
| 2026-04-28 11:41 | 51.64122 | 1.64096 | 34042 ft | 458 kts | 250° |
| 2026-04-28 11:41 | 51.63084 | 1.59245 | 34277 ft | 457 kts | 250° |
| 2026-04-28 11:42 | 51.60995 | 1.49524 | 34300 ft | 460 kts | 250° |
| 2026-04-28 11:42 | 51.58899 | 1.39814 | 34287 ft | 458 kts | 250° |
| 2026-04-28 11:43 | 51.56803 | 1.30153 | 34289 ft | 457 kts | 250° |
| 2026-04-28 11:43 | 51.54696 | 1.20485 | 34307 ft | 461 kts | 250° |
| 2026-04-28 11:44 | 51.52571 | 1.10781 | 34303 ft | 466 kts | 250° |
| 2026-04-28 11:44 | 51.50402 | 1.00919 | 34298 ft | 470 kts | 250° |
| 2026-04-28 11:45 | 51.48209 | 0.91000 | 34289 ft | 473 kts | 250° |
| 2026-04-28 11:45 | 51.45994 | 0.81026 | 34293 ft | 474 kts | 250° |
| 2026-04-28 11:46 | 51.43769 | 0.71055 | 34290 ft | 475 kts | 250° |
| 2026-04-28 11:46 | 51.41546 | 0.61142 | 34294 ft | 475 kts | 250° |
| 2026-04-28 11:47 | 51.39304 | 0.51190 | 34289 ft | 475 kts | 250° |
| 2026-04-28 11:47 | 51.38179 | 0.46214 | 34404 ft | 475 kts | 250° |
| 2026-04-28 11:47 | 51.37053 | 0.41245 | 34416 ft | 475 kts | 250° |
| 2026-04-28 11:48 | 51.34794 | 0.31313 | 34290 ft | 475 kts | 250° |
| 2026-04-28 11:48 | 51.32812 | 0.22638 | 34294 ft | 474 kts | 250° |
| 2026-04-28 11:49 | 51.30538 | 0.12727 | 34292 ft | 474 kts | 250° |
| 2026-04-28 11:49 | 51.28270 | 0.02890 | 34295 ft | 474 kts | 250° |
| 2026-04-28 11:50 | 51.25970 | -0.07045 | 34295 ft | 480 kts | 250° |
| 2026-04-28 11:50 | 51.23628 | -0.17112 | 34304 ft | 486 kts | 250° |
| 2026-04-28 11:51 | 51.21267 | -0.27211 | 34292 ft | 490 kts | 250° |
| 2026-04-28 11:51 | 51.18872 | -0.37408 | 34301 ft | 492 kts | 250° |
| 2026-04-28 11:52 | 51.16456 | -0.47647 | 34286 ft | 493 kts | 250° |
| 2026-04-28 11:52 | 51.14035 | -0.57855 | 34311 ft | 493 kts | 250° |
| 2026-04-28 11:53 | 51.11610 | -0.68037 | 34304 ft | 491 kts | 250° |
| 2026-04-28 11:53 | 51.09180 | -0.78188 | 34287 ft | 489 kts | 250° |
| 2026-04-28 11:54 | 51.06752 | -0.88287 | 34288 ft | 488 kts | 250° |
| 2026-04-28 11:54 | 51.04322 | -0.98347 | 34293 ft | 486 kts | 250° |
| 2026-04-28 11:55 | 51.01912 | -1.08282 | 34289 ft | 484 kts | 249° |
| 2026-04-28 11:55 | 50.99485 | -1.18246 | 34290 ft | 483 kts | 249° |
| 2026-04-28 11:56 | 50.97008 | -1.28160 | 34292 ft | 483 kts | 244° |
| 2026-04-28 11:56 | 50.95276 | -1.32726 | 34291 ft | 483 kts | 232° |
| 2026-04-28 11:56 | 50.93070 | -1.36725 | 34297 ft | 482 kts | 222° |
| 2026-04-28 11:57 | 50.87664 | -1.42938 | 34307 ft | 480 kts | 211° |
| 2026-04-28 11:57 | 50.82014 | -1.48625 | 34299 ft | 483 kts | 211° |
| 2026-04-28 11:58 | 50.76353 | -1.54411 | 34268 ft | 485 kts | 212° |
| 2026-04-28 11:58 | 50.70700 | -1.60260 | 34286 ft | 487 kts | 212° |
| 2026-04-28 11:59 | 50.65033 | -1.66123 | 34287 ft | 488 kts | 212° |
| 2026-04-28 11:59 | 50.59387 | -1.71939 | 34274 ft | 488 kts | 212° |
| 2026-04-28 12:00 | 50.53694 | -1.77784 | 34278 ft | 487 kts | 212° |
| 2026-04-28 12:00 | 50.48017 | -1.83570 | 34276 ft | 486 kts | 212° |
| 2026-04-28 12:01 | 50.42338 | -1.89318 | 34260 ft | 484 kts | 212° |
| 2026-04-28 12:01 | 50.36683 | -1.95032 | 34253 ft | 483 kts | 212° |
| 2026-04-28 12:02 | 50.31042 | -2.00721 | 34256 ft | 481 kts | 212° |
| 2026-04-28 12:02 | 50.25418 | -2.06377 | 34266 ft | 480 kts | 212° |
| 2026-04-28 12:03 | 50.19819 | -2.11909 | 34276 ft | 479 kts | 211° |
| 2026-04-28 12:03 | 50.14162 | -2.17392 | 34265 ft | 478 kts | 211° |
| 2026-04-28 12:04 | 50.08511 | -2.22868 | 34264 ft | 478 kts | 211° |
| 2026-04-28 12:04 | 50.02862 | -2.28344 | 34243 ft | 478 kts | 211° |
| 2026-04-28 12:05 | 49.97199 | -2.33820 | 34252 ft | 479 kts | 211° |
| 2026-04-28 12:05 | 49.91400 | -2.38880 | 34240 ft | 478 kts | 203° |
| 2026-04-28 12:06 | 49.85276 | -2.42931 | 34239 ft | 479 kts | 201° |
| 2026-04-28 12:06 | 49.79120 | -2.46907 | 34228 ft | 480 kts | 202° |
| 2026-04-28 12:07 | 49.72951 | -2.50937 | 34222 ft | 481 kts | 202° |
| 2026-04-28 12:07 | 49.66843 | -2.54959 | 34221 ft | 481 kts | 202° |
| 2026-04-28 12:08 | 49.60671 | -2.59026 | 34217 ft | 482 kts | 202° |
| 2026-04-28 12:08 | 49.54505 | -2.63077 | 34224 ft | 482 kts | 202° |
| 2026-04-28 12:09 | 49.48332 | -2.67119 | 34223 ft | 481 kts | 202° |
| 2026-04-28 12:09 | 49.42178 | -2.71137 | 34205 ft | 481 kts | 202° |
| 2026-04-28 12:10 | 49.36054 | -2.75125 | 34210 ft | 480 kts | 202° |
| 2026-04-28 12:10 | 49.29910 | -2.79114 | 34223 ft | 479 kts | 202° |
| 2026-04-28 12:11 | 49.23766 | -2.83093 | 34214 ft | 478 kts | 202° |
| 2026-04-28 12:11 | 49.17645 | -2.87045 | 34214 ft | 477 kts | 202° |
| 2026-04-28 12:12 | 49.11521 | -2.90989 | 34231 ft | 477 kts | 203° |
| 2026-04-28 12:12 | 49.05410 | -2.94915 | 34212 ft | 476 kts | 203° |
| 2026-04-28 12:13 | 48.99307 | -2.98824 | 34225 ft | 475 kts | 203° |
| 2026-04-28 12:13 | 48.93202 | -3.02725 | 34214 ft | 475 kts | 203° |
| 2026-04-28 12:14 | 48.87113 | -3.06605 | 34220 ft | 474 kts | 203° |
| 2026-04-28 12:14 | 48.81055 | -3.10455 | 34212 ft | 474 kts | 203° |
| 2026-04-28 12:15 | 48.74972 | -3.14310 | 34218 ft | 474 kts | 203° |
| 2026-04-28 12:15 | 48.68883 | -3.18160 | 34212 ft | 474 kts | 203° |
| 2026-04-28 12:16 | 48.62795 | -3.21999 | 34205 ft | 473 kts | 204° |
| 2026-04-28 12:16 | 48.56719 | -3.25820 | 34203 ft | 473 kts | 204° |
| 2026-04-28 12:17 | 48.50624 | -3.29643 | 34192 ft | 473 kts | 204° |
| 2026-04-28 12:17 | 48.44573 | -3.33429 | 34182 ft | 473 kts | 204° |
| 2026-04-28 12:18 | 48.38494 | -3.37223 | 34168 ft | 473 kts | 204° |
| 2026-04-28 12:18 | 48.32423 | -3.41002 | 34159 ft | 472 kts | 204° |
| 2026-04-28 12:19 | 48.26350 | -3.44770 | 34160 ft | 471 kts | 204° |
| 2026-04-28 12:19 | 48.20292 | -3.48521 | 34152 ft | 470 kts | 204° |
| 2026-04-28 12:20 | 48.14240 | -3.52258 | 34140 ft | 470 kts | 204° |
| 2026-04-28 12:20 | 48.08199 | -3.55981 | 34128 ft | 468 kts | 204° |
| 2026-04-28 12:21 | 48.02179 | -3.59679 | 34137 ft | 467 kts | 204° |
| 2026-04-28 12:21 | 47.96176 | -3.63358 | 34129 ft | 465 kts | 204° |
| 2026-04-28 12:22 | 47.90195 | -3.67014 | 34118 ft | 464 kts | 204° |
| 2026-04-28 12:22 | 47.84267 | -3.70630 | 34124 ft | 462 kts | 204° |
| 2026-04-28 12:23 | 47.78323 | -3.74246 | 34119 ft | 460 kts | 204° |
| 2026-04-28 12:23 | 47.73393 | -3.77238 | 34115 ft | 459 kts | 204° |
| 2026-04-28 12:24 | 47.67494 | -3.80810 | 34118 ft | 457 kts | 204° |
| 2026-04-28 12:24 | 47.61611 | -3.84363 | 34118 ft | 455 kts | 205° |
| 2026-04-28 12:25 | 47.55748 | -3.87897 | 34115 ft | 454 kts | 205° |
| 2026-04-28 12:25 | 47.49908 | -3.91408 | 34116 ft | 452 kts | 205° |
| 2026-04-28 12:26 | 47.44092 | -3.94895 | 34120 ft | 450 kts | 205° |
| 2026-04-28 12:26 | 47.38318 | -3.98350 | 34133 ft | 449 kts | 205° |
| 2026-04-28 12:27 | 47.32533 | -4.01803 | 34124 ft | 447 kts | 205° |
| 2026-04-28 12:27 | 47.26773 | -4.05233 | 34123 ft | 446 kts | 206° |
| 2026-04-28 12:28 | 47.21034 | -4.08642 | 34126 ft | 444 kts | 206° |
| 2026-04-28 12:28 | 47.15314 | -4.12033 | 34120 ft | 442 kts | 206° |
| 2026-04-28 12:29 | 47.06822 | -4.17051 | 34115 ft | 439 kts | 206° |
| 2026-04-28 12:30 | 47.01161 | -4.20387 | 34124 ft | 437 kts | 206° |
| 2026-04-28 12:30 | 46.95521 | -4.23704 | 34125 ft | 436 kts | 206° |
| 2026-04-28 12:31 | 46.89893 | -4.27005 | 34123 ft | 435 kts | 206° |
| 2026-04-28 12:31 | 46.84313 | -4.30271 | 34122 ft | 434 kts | 206° |
| 2026-04-28 12:32 | 46.78705 | -4.33547 | 34125 ft | 434 kts | 207° |
| 2026-04-28 12:32 | 46.73099 | -4.36814 | 34120 ft | 434 kts | 207° |
| 2026-04-28 12:33 | 46.67489 | -4.40075 | 34122 ft | 434 kts | 207° |
| 2026-04-28 12:33 | 46.61869 | -4.43336 | 34122 ft | 434 kts | 207° |
| 2026-04-28 12:34 | 46.56294 | -4.46563 | 34120 ft | 434 kts | 207° |
| 2026-04-28 12:34 | 46.50677 | -4.49806 | 34113 ft | 434 kts | 207° |
| 2026-04-28 12:35 | 46.45061 | -4.53042 | 34111 ft | 434 kts | 207° |
| 2026-04-28 12:35 | 46.39429 | -4.56280 | 34107 ft | 435 kts | 207° |
| 2026-04-28 12:36 | 46.33833 | -4.59490 | 34108 ft | 435 kts | 206° |
| 2026-04-28 12:36 | 46.28198 | -4.62716 | 34101 ft | 435 kts | 206° |
| 2026-04-28 12:37 | 46.22565 | -4.65932 | 34100 ft | 435 kts | 206° |
| 2026-04-28 12:37 | 46.16926 | -4.69146 | 34110 ft | 436 kts | 206° |
| 2026-04-28 12:38 | 46.11318 | -4.72334 | 34103 ft | 436 kts | 206° |
| 2026-04-28 12:38 | 46.05661 | -4.75544 | 34098 ft | 436 kts | 206° |
| 2026-04-28 12:39 | 46.00008 | -4.78744 | 34098 ft | 436 kts | 206° |
| 2026-04-28 12:39 | 45.94346 | -4.81942 | 34093 ft | 436 kts | 206° |
| 2026-04-28 12:40 | 45.88693 | -4.85127 | 34089 ft | 436 kts | 206° |
| 2026-04-28 12:40 | 45.83085 | -4.88281 | 34090 ft | 434 kts | 206° |
| 2026-04-28 12:41 | 45.77457 | -4.91439 | 34087 ft | 433 kts | 206° |
| 2026-04-28 12:41 | 45.71856 | -4.94574 | 34083 ft | 431 kts | 206° |
| 2026-04-28 12:42 | 45.66316 | -4.97670 | 34074 ft | 429 kts | 206° |
| 2026-04-28 12:42 | 45.60768 | -5.00763 | 34078 ft | 427 kts | 206° |
| 2026-04-28 12:43 | 45.55236 | -5.03841 | 34071 ft | 426 kts | 206° |
| 2026-04-28 12:43 | 45.49720 | -5.06904 | 34076 ft | 425 kts | 206° |
| 2026-04-28 12:44 | 45.44220 | -5.09951 | 34073 ft | 424 kts | 206° |
| 2026-04-28 12:44 | 45.38714 | -5.12996 | 34071 ft | 424 kts | 206° |
| 2026-04-28 12:45 | 45.33209 | -5.16033 | 34079 ft | 425 kts | 205° |
| 2026-04-28 12:45 | 45.27686 | -5.19075 | 34073 ft | 426 kts | 205° |
| 2026-04-28 12:46 | 45.22152 | -5.22115 | 34064 ft | 426 kts | 205° |
| 2026-04-28 12:46 | 45.16642 | -5.25136 | 34060 ft | 427 kts | 205° |
| 2026-04-28 12:47 | 45.11092 | -5.28173 | 34058 ft | 427 kts | 205° |
| 2026-04-28 12:47 | 45.05543 | -5.31202 | 34060 ft | 428 kts | 205° |
| 2026-04-28 12:48 | 45.00021 | -5.34211 | 34059 ft | 428 kts | 205° |
| 2026-04-28 12:48 | 44.94458 | -5.37235 | 34056 ft | 428 kts | 205° |
| 2026-04-28 12:49 | 44.88889 | -5.40257 | 34052 ft | 427 kts | 205° |
| 2026-04-28 12:49 | 44.83343 | -5.43260 | 34053 ft | 427 kts | 204° |
| 2026-04-28 12:50 | 44.77791 | -5.46261 | 34043 ft | 426 kts | 204° |
| 2026-04-28 12:50 | 44.72285 | -5.49230 | 34043 ft | 426 kts | 204° |
| 2026-04-28 12:51 | 44.66756 | -5.52207 | 34046 ft | 425 kts | 204° |
| 2026-04-28 12:51 | 44.61233 | -5.55173 | 34045 ft | 425 kts | 204° |
| 2026-04-28 12:52 | 44.55788 | -5.58370 | 34042 ft | 424 kts | 206° |
| 2026-04-28 12:52 | 44.50398 | -5.61769 | 34040 ft | 424 kts | 207° |
| 2026-04-28 12:53 | 44.45017 | -5.65146 | 34039 ft | 425 kts | 206° |
| 2026-04-28 12:53 | 44.39607 | -5.68498 | 34035 ft | 425 kts | 206° |
| 2026-04-28 12:54 | 44.34182 | -5.71835 | 34033 ft | 426 kts | 206° |
| 2026-04-28 12:54 | 44.28735 | -5.75173 | 34035 ft | 427 kts | 206° |
| 2026-04-28 12:55 | 44.23316 | -5.78488 | 34030 ft | 429 kts | 206° |
| 2026-04-28 12:55 | 44.17845 | -5.81828 | 34032 ft | 430 kts | 206° |
| 2026-04-28 12:56 | 44.12349 | -5.85176 | 34026 ft | 431 kts | 206° |
| 2026-04-28 12:56 | 44.06841 | -5.88526 | 34023 ft | 433 kts | 206° |
| 2026-04-28 12:57 | 44.01305 | -5.91885 | 34022 ft | 434 kts | 205° |
| 2026-04-28 12:57 | 43.95771 | -5.95236 | 34020 ft | 435 kts | 205° |
| 2026-04-28 12:58 | 43.90236 | -5.98582 | 34019 ft | 436 kts | 205° |
| 2026-04-28 12:58 | 43.84670 | -6.01938 | 34018 ft | 436 kts | 205° |
| 2026-04-28 12:59 | 43.79101 | -6.05290 | 34018 ft | 436 kts | 205° |
| 2026-04-28 12:59 | 43.73519 | -6.08643 | 34015 ft | 436 kts | 205° |
| 2026-04-28 13:00 | 43.67959 | -6.11975 | 34017 ft | 435 kts | 205° |
| 2026-04-28 13:00 | 43.62434 | -6.15281 | 34016 ft | 435 kts | 205° |
| 2026-04-28 13:01 | 43.56891 | -6.18590 | 34018 ft | 434 kts | 205° |
| 2026-04-28 13:01 | 43.51340 | -6.21898 | 34019 ft | 434 kts | 205° |
| 2026-04-28 13:02 | 43.45792 | -6.25197 | 34008 ft | 433 kts | 205° |
| 2026-04-28 13:02 | 43.40255 | -6.28482 | 34009 ft | 432 kts | 205° |
| 2026-04-28 13:03 | 43.34739 | -6.31749 | 33978 ft | 431 kts | 205° |
| 2026-04-28 13:03 | 43.29266 | -6.34985 | 33976 ft | 430 kts | 205° |
| 2026-04-28 13:04 | 43.23758 | -6.38234 | 33969 ft | 430 kts | 205° |
| 2026-04-28 13:04 | 43.18248 | -6.41478 | 33980 ft | 432 kts | 204° |
| 2026-04-28 13:05 | 43.12717 | -6.44729 | 33944 ft | 433 kts | 204° |
| 2026-04-28 13:05 | 43.07168 | -6.47983 | 33943 ft | 434 kts | 204° |
| 2026-04-28 13:06 | 43.01619 | -6.51230 | 33925 ft | 432 kts | 204° |
| 2026-04-28 13:06 | 42.96138 | -6.54431 | 33924 ft | 430 kts | 204° |
| 2026-04-28 13:07 | 42.90638 | -6.57638 | 33914 ft | 429 kts | 204° |
| 2026-04-28 13:07 | 42.85144 | -6.60835 | 33927 ft | 429 kts | 204° |
| 2026-04-28 13:08 | 42.79647 | -6.64027 | 33921 ft | 429 kts | 204° |
| 2026-04-28 13:08 | 42.74141 | -6.67219 | 33921 ft | 430 kts | 204° |
| 2026-04-28 13:09 | 42.68619 | -6.70413 | 33921 ft | 432 kts | 204° |
| 2026-04-28 13:09 | 42.63109 | -6.73595 | 33910 ft | 433 kts | 204° |
| 2026-04-28 13:10 | 42.57556 | -6.76795 | 33916 ft | 433 kts | 204° |
| 2026-04-28 13:10 | 42.52002 | -6.79989 | 33917 ft | 434 kts | 204° |
| 2026-04-28 13:11 | 42.46453 | -6.83174 | 33918 ft | 431 kts | 204° |
| 2026-04-28 13:11 | 42.41053 | -6.86698 | 33934 ft | 431 kts | 210° |
| 2026-04-28 13:12 | 42.35887 | -6.90834 | 34120 ft | 435 kts | 211° |
| 2026-04-28 13:12 | 42.33296 | -6.92935 | 34380 ft | 433 kts | 211° |
| 2026-04-28 13:12 | 42.30717 | -6.95015 | 34618 ft | 432 kts | 211° |
| 2026-04-28 13:12 | 42.28972 | -6.96413 | 34762 ft | 432 kts | 211° |
| 2026-04-28 13:13 | 42.26385 | -6.98472 | 34903 ft | 432 kts | 211° |
| 2026-04-28 13:13 | 42.21166 | -7.02595 | 34925 ft | 435 kts | 211° |
| 2026-04-28 13:14 | 42.15948 | -7.06694 | 34928 ft | 433 kts | 211° |
| 2026-04-28 13:14 | 42.10766 | -7.10755 | 34926 ft | 434 kts | 210° |
| 2026-04-28 13:15 | 42.05534 | -7.14848 | 34930 ft | 435 kts | 210° |
| 2026-04-28 13:15 | 42.00284 | -7.18948 | 34921 ft | 436 kts | 211° |
| 2026-04-28 13:16 | 41.95025 | -7.23047 | 34915 ft | 437 kts | 211° |
| 2026-04-28 13:16 | 41.89770 | -7.27135 | 34922 ft | 435 kts | 211° |
| 2026-04-28 13:17 | 41.84533 | -7.31201 | 34899 ft | 434 kts | 210° |
| 2026-04-28 13:17 | 41.79342 | -7.35224 | 34909 ft | 432 kts | 210° |
| 2026-04-28 13:18 | 41.74131 | -7.39255 | 34894 ft | 431 kts | 210° |
| 2026-04-28 13:18 | 41.68945 | -7.43259 | 34892 ft | 430 kts | 210° |
| 2026-04-28 13:19 | 41.63796 | -7.47227 | 34899 ft | 428 kts | 210° |
| 2026-04-28 13:19 | 41.58635 | -7.51197 | 34892 ft | 429 kts | 210° |
| 2026-04-28 13:20 | 41.53446 | -7.55181 | 34906 ft | 430 kts | 210° |
| 2026-04-28 13:20 | 41.48247 | -7.59165 | 34885 ft | 431 kts | 210° |
| 2026-04-28 13:21 | 41.43040 | -7.63148 | 34896 ft | 432 kts | 210° |
| 2026-04-28 13:21 | 41.37808 | -7.67143 | 34889 ft | 431 kts | 210° |
| 2026-04-28 13:22 | 41.32624 | -7.71093 | 34890 ft | 428 kts | 210° |
| 2026-04-28 13:22 | 41.27502 | -7.74989 | 34877 ft | 425 kts | 210° |
| 2026-04-28 13:23 | 41.22377 | -7.78881 | 34891 ft | 424 kts | 210° |
| 2026-04-28 13:23 | 41.17250 | -7.82766 | 34893 ft | 424 kts | 210° |
| 2026-04-28 13:24 | 41.12114 | -7.86651 | 34893 ft | 425 kts | 210° |
| 2026-04-28 13:24 | 41.06944 | -7.90555 | 34903 ft | 430 kts | 210° |
| 2026-04-28 13:25 | 41.01693 | -7.94513 | 34885 ft | 434 kts | 209° |
| 2026-04-28 13:25 | 40.96468 | -7.98444 | 34893 ft | 434 kts | 209° |
| 2026-04-28 13:26 | 40.91215 | -8.02389 | 34895 ft | 434 kts | 209° |
| 2026-04-28 13:26 | 40.85956 | -8.06331 | 34893 ft | 434 kts | 209° |
| 2026-04-28 13:27 | 40.80698 | -8.10265 | 34894 ft | 434 kts | 209° |
| 2026-04-28 13:27 | 40.75438 | -8.14194 | 34891 ft | 434 kts | 209° |
| 2026-04-28 13:28 | 40.70188 | -8.18107 | 34888 ft | 432 kts | 209° |
| 2026-04-28 13:28 | 40.64954 | -8.22001 | 34883 ft | 431 kts | 209° |
| 2026-04-28 13:29 | 40.59733 | -8.25880 | 34887 ft | 431 kts | 209° |
| 2026-04-28 13:29 | 40.54544 | -8.29727 | 34885 ft | 430 kts | 209° |
| 2026-04-28 13:30 | 40.49319 | -8.33593 | 34892 ft | 430 kts | 209° |
| 2026-04-28 13:30 | 40.44094 | -8.37454 | 34894 ft | 430 kts | 209° |
| 2026-04-28 13:31 | 40.36256 | -8.43231 | 34892 ft | 430 kts | 209° |
| 2026-04-28 13:31 | 40.31028 | -8.47076 | 34876 ft | 430 kts | 208° |
| 2026-04-28 13:32 | 40.25839 | -8.50885 | 34885 ft | 430 kts | 208° |
| 2026-04-28 13:32 | 40.20611 | -8.54715 | 34892 ft | 430 kts | 208° |
| 2026-04-28 13:33 | 40.15390 | -8.58535 | 34884 ft | 430 kts | 208° |
| 2026-04-28 13:33 | 40.10169 | -8.62347 | 34877 ft | 429 kts | 208° |
| 2026-04-28 13:34 | 40.04985 | -8.66126 | 34867 ft | 428 kts | 208° |
| 2026-04-28 13:34 | 39.99777 | -8.69915 | 34871 ft | 427 kts | 208° |
| 2026-04-28 13:35 | 39.94578 | -8.73692 | 34863 ft | 427 kts | 208° |
| 2026-04-28 13:35 | 39.89387 | -8.77456 | 34854 ft | 427 kts | 208° |
| 2026-04-28 13:36 | 39.84231 | -8.81188 | 34853 ft | 426 kts | 208° |
| 2026-04-28 13:36 | 39.79044 | -8.84936 | 34867 ft | 426 kts | 208° |
| 2026-04-28 13:37 | 39.73853 | -8.88680 | 34852 ft | 426 kts | 208° |
| 2026-04-28 13:37 | 39.68658 | -8.92420 | 34866 ft | 426 kts | 208° |
| 2026-04-28 13:38 | 39.63460 | -8.96156 | 34867 ft | 427 kts | 208° |
| 2026-04-28 13:38 | 39.58264 | -8.99885 | 34877 ft | 427 kts | 208° |
| 2026-04-28 13:39 | 39.53048 | -9.03621 | 34881 ft | 427 kts | 208° |
| 2026-04-28 13:39 | 39.47874 | -9.07321 | 34896 ft | 428 kts | 208° |
| 2026-04-28 13:40 | 39.42650 | -9.11050 | 34896 ft | 429 kts | 208° |
| 2026-04-28 13:40 | 39.37419 | -9.14778 | 34893 ft | 429 kts | 208° |
| 2026-04-28 13:41 | 39.32174 | -9.18509 | 34889 ft | 429 kts | 208° |
| 2026-04-28 13:41 | 39.26937 | -9.22229 | 34887 ft | 429 kts | 208° |
| 2026-04-28 13:42 | 39.21745 | -9.25910 | 34895 ft | 428 kts | 208° |
| 2026-04-28 13:42 | 39.16525 | -9.29603 | 34892 ft | 427 kts | 208° |
| 2026-04-28 13:43 | 39.11308 | -9.33290 | 34890 ft | 427 kts | 208° |
| 2026-04-28 13:43 | 39.06092 | -9.36968 | 34892 ft | 427 kts | 208° |
| 2026-04-28 13:44 | 39.00876 | -9.40641 | 34892 ft | 427 kts | 208° |
| 2026-04-28 13:44 | 38.95661 | -9.44307 | 34887 ft | 428 kts | 208° |
| 2026-04-28 13:45 | 38.90430 | -9.47978 | 34891 ft | 428 kts | 208° |
| 2026-04-28 13:45 | 38.85196 | -9.51645 | 34889 ft | 429 kts | 208° |
| 2026-04-28 13:46 | 38.79976 | -9.55296 | 34889 ft | 430 kts | 208° |
| 2026-04-28 13:46 | 38.74722 | -9.58964 | 34890 ft | 431 kts | 208° |
| 2026-04-28 13:47 | 38.69447 | -9.62641 | 34891 ft | 431 kts | 208° |
| 2026-04-28 13:47 | 38.64178 | -9.66307 | 34898 ft | 431 kts | 208° |
| 2026-04-28 13:48 | 38.58916 | -9.69962 | 34902 ft | 430 kts | 208° |
| 2026-04-28 13:48 | 38.53680 | -9.73593 | 34908 ft | 430 kts | 208° |
| 2026-04-28 13:49 | 38.48418 | -9.77236 | 34914 ft | 430 kts | 208° |
| 2026-04-28 13:49 | 38.43144 | -9.80882 | 34908 ft | 430 kts | 208° |
| 2026-04-28 13:50 | 38.37914 | -9.84491 | 34909 ft | 430 kts | 208° |
| 2026-04-28 13:50 | 38.32630 | -9.88131 | 34911 ft | 431 kts | 208° |
| 2026-04-28 13:51 | 38.27343 | -9.91767 | 34911 ft | 431 kts | 208° |
| 2026-04-28 13:51 | 38.22055 | -9.95398 | 34740 ft | 433 kts | 208° |
| 2026-04-28 13:52 | 38.19430 | -9.97198 | 34869 ft | 434 kts | 208° |
| 2026-04-28 13:52 | 38.16762 | -9.99026 | 34938 ft | 437 kts | 208° |
| 2026-04-28 13:52 | 38.11378 | -10.02710 | 35005 ft | 443 kts | 208° |
| 2026-04-28 13:53 | 38.05900 | -10.06452 | 35009 ft | 451 kts | 208° |
| 2026-04-28 13:53 | 38.00336 | -10.10247 | 35013 ft | 457 kts | 208° |
| 2026-04-28 13:54 | 37.94720 | -10.14070 | 35001 ft | 458 kts | 208° |
| 2026-04-28 13:54 | 37.89126 | -10.17871 | 34997 ft | 453 kts | 208° |
| 2026-04-28 13:55 | 37.83570 | -10.21641 | 35011 ft | 453 kts | 208° |
| 2026-04-28 13:55 | 37.77997 | -10.25415 | 35011 ft | 456 kts | 208° |
| 2026-04-28 13:56 | 37.72404 | -10.29196 | 35000 ft | 455 kts | 208° |
| 2026-04-28 13:56 | 37.66871 | -10.32930 | 34998 ft | 453 kts | 208° |
| 2026-04-28 13:57 | 37.61300 | -10.36684 | 35007 ft | 454 kts | 208° |
| 2026-04-28 13:57 | 37.55721 | -10.40436 | 35001 ft | 456 kts | 208° |
| 2026-04-28 13:58 | 37.51054 | -10.43570 | 35006 ft | 457 kts | 208° |
| 2026-04-28 13:58 | 37.45439 | -10.47335 | 35005 ft | 458 kts | 208° |
| 2026-04-28 13:59 | 37.39805 | -10.51106 | 35006 ft | 458 kts | 208° |
| 2026-04-28 13:59 | 37.34179 | -10.54865 | 34999 ft | 458 kts | 208° |
| 2026-04-28 14:00 | 37.28549 | -10.58621 | 35006 ft | 457 kts | 208° |
| 2026-04-28 14:00 | 37.22942 | -10.62355 | 34997 ft | 456 kts | 208° |
| 2026-04-28 14:01 | 37.17372 | -10.66057 | 34999 ft | 455 kts | 208° |
| 2026-04-28 14:01 | 37.11786 | -10.69765 | 35004 ft | 454 kts | 208° |
| 2026-04-28 14:02 | 37.06204 | -10.73463 | 35003 ft | 453 kts | 208° |
| 2026-04-28 14:02 | 37.00624 | -10.77154 | 34994 ft | 452 kts | 208° |
| 2026-04-28 14:03 | 36.95082 | -10.80814 | 34998 ft | 452 kts | 208° |
| 2026-04-28 14:03 | 36.89520 | -10.84480 | 35001 ft | 452 kts | 208° |
| 2026-04-28 14:04 | 36.83951 | -10.88146 | 34998 ft | 452 kts | 208° |
| 2026-04-28 14:04 | 36.78376 | -10.91809 | 35003 ft | 452 kts | 208° |
| 2026-04-28 14:05 | 36.72795 | -10.95470 | 34998 ft | 453 kts | 208° |
| 2026-04-28 14:05 | 36.67209 | -10.99128 | 34998 ft | 453 kts | 208° |
| 2026-04-28 14:06 | 36.61656 | -11.02759 | 35003 ft | 454 kts | 208° |
| 2026-04-28 14:06 | 36.56049 | -11.06419 | 35002 ft | 454 kts | 208° |
| 2026-04-28 14:07 | 36.50447 | -11.10070 | 34999 ft | 455 kts | 207° |
| 2026-04-28 14:07 | 36.44836 | -11.13720 | 34998 ft | 455 kts | 207° |
| 2026-04-28 14:08 | 36.39221 | -11.17368 | 35001 ft | 455 kts | 207° |
| 2026-04-28 14:08 | 36.33606 | -11.21009 | 35001 ft | 455 kts | 207° |
| 2026-04-28 14:09 | 36.27989 | -11.24646 | 35002 ft | 455 kts | 207° |
| 2026-04-28 14:09 | 36.22376 | -11.28274 | 35000 ft | 455 kts | 207° |
| 2026-04-28 14:10 | 36.16758 | -11.31900 | 34996 ft | 455 kts | 207° |
| 2026-04-28 14:10 | 36.11144 | -11.35517 | 35006 ft | 454 kts | 207° |
| 2026-04-28 14:11 | 36.05533 | -11.39127 | 35002 ft | 454 kts | 207° |
| 2026-04-28 14:11 | 35.99960 | -11.42707 | 34998 ft | 454 kts | 207° |
| 2026-04-28 14:12 | 35.94348 | -11.46292 | 34998 ft | 454 kts | 207° |
| 2026-04-28 14:12 | 35.88714 | -11.49814 | 35001 ft | 453 kts | 207° |
| 2026-04-28 14:13 | 35.83073 | -11.53320 | 35005 ft | 453 kts | 207° |
| 2026-04-28 14:13 | 35.77425 | -11.56831 | 35022 ft | 457 kts | 211° |
| 2026-04-28 14:14 | 35.71762 | -11.60356 | 34974 ft | 460 kts | 211° |
| 2026-04-28 14:14 | 35.66039 | -11.63914 | 34964 ft | 462 kts | 211° |
| 2026-04-28 14:15 | 35.60287 | -11.67482 | 34971 ft | 463 kts | 211° |
| 2026-04-28 14:15 | 35.54518 | -11.71056 | 34971 ft | 465 kts | 211° |
| 2026-04-28 14:16 | 35.48715 | -11.74644 | 34971 ft | 467 kts | 211° |
| 2026-04-28 14:16 | 35.42928 | -11.78217 | 34975 ft | 469 kts | 211° |
| 2026-04-28 14:17 | 35.37087 | -11.81817 | 34972 ft | 470 kts | 211° |
| 2026-04-28 14:17 | 35.31232 | -11.85420 | 34979 ft | 472 kts | 211° |
| 2026-04-28 14:18 | 35.25354 | -11.89031 | 34974 ft | 473 kts | 211° |
| 2026-04-28 14:18 | 35.19468 | -11.92641 | 34974 ft | 473 kts | 211° |
| 2026-04-28 14:19 | 35.13581 | -11.96246 | 34973 ft | 473 kts | 211° |
| 2026-04-28 14:19 | 35.07683 | -11.99851 | 34977 ft | 474 kts | 211° |
| 2026-04-28 14:20 | 35.01823 | -12.03428 | 34977 ft | 474 kts | 211° |
| 2026-04-28 14:20 | 34.95915 | -12.07028 | 34978 ft | 474 kts | 211° |
| 2026-04-28 14:21 | 34.90026 | -12.10611 | 34981 ft | 474 kts | 211° |
| 2026-04-28 14:21 | 34.84128 | -12.14194 | 34981 ft | 474 kts | 211° |
| 2026-04-28 14:22 | 34.78226 | -12.17773 | 34984 ft | 474 kts | 211° |
| 2026-04-28 14:22 | 34.72329 | -12.21344 | 34985 ft | 474 kts | 211° |
| 2026-04-28 14:23 | 34.66416 | -12.24918 | 34985 ft | 474 kts | 211° |
| 2026-04-28 14:23 | 34.60509 | -12.28483 | 34987 ft | 474 kts | 211° |
| 2026-04-28 14:24 | 34.54603 | -12.32042 | 34989 ft | 474 kts | 211° |
| 2026-04-28 14:24 | 34.48691 | -12.35598 | 34987 ft | 474 kts | 211° |
| 2026-04-28 14:25 | 34.42811 | -12.39131 | 34988 ft | 474 kts | 210° |
| 2026-04-28 14:25 | 34.36895 | -12.42679 | 34991 ft | 474 kts | 210° |
| 2026-04-28 14:26 | 34.30968 | -12.46227 | 34995 ft | 474 kts | 210° |
| 2026-04-28 14:26 | 34.25050 | -12.49765 | 34993 ft | 475 kts | 210° |
| 2026-04-28 14:27 | 34.19125 | -12.53302 | 34995 ft | 475 kts | 210° |
| 2026-04-28 14:27 | 34.13232 | -12.56813 | 34995 ft | 475 kts | 210° |
| 2026-04-28 14:28 | 34.07300 | -12.60343 | 34994 ft | 475 kts | 210° |
| 2026-04-28 14:28 | 34.01372 | -12.63864 | 34994 ft | 475 kts | 210° |
| 2026-04-28 14:29 | 33.95447 | -12.67378 | 34996 ft | 475 kts | 210° |
| 2026-04-28 14:29 | 33.89523 | -12.70887 | 34992 ft | 475 kts | 210° |
| 2026-04-28 14:30 | 33.83625 | -12.74374 | 35002 ft | 475 kts | 210° |
| 2026-04-28 14:30 | 33.77698 | -12.77873 | 34999 ft | 474 kts | 210° |
| 2026-04-28 14:31 | 33.71773 | -12.81366 | 34999 ft | 474 kts | 210° |
| 2026-04-28 14:31 | 33.65843 | -12.84856 | 35000 ft | 474 kts | 210° |
| 2026-04-28 14:32 | 33.59925 | -12.88333 | 34999 ft | 474 kts | 210° |
| 2026-04-28 14:32 | 33.53999 | -12.91810 | 35001 ft | 474 kts | 210° |
| 2026-04-28 14:33 | 33.48078 | -12.95279 | 35003 ft | 473 kts | 210° |
| 2026-04-28 14:33 | 33.42193 | -12.98722 | 35002 ft | 473 kts | 210° |
| 2026-04-28 14:34 | 33.33309 | -13.03909 | 35004 ft | 473 kts | 210° |
| 2026-04-28 14:35 | 33.27394 | -13.07355 | 35018 ft | 473 kts | 210° |
| 2026-04-28 14:35 | 33.21486 | -13.10793 | 35005 ft | 472 kts | 210° |
| 2026-04-28 14:36 | 33.15577 | -13.14226 | 35013 ft | 472 kts | 210° |
| 2026-04-28 14:36 | 33.09665 | -13.17655 | 35014 ft | 472 kts | 210° |
| 2026-04-28 14:37 | 33.03797 | -13.21054 | 35013 ft | 472 kts | 210° |
| 2026-04-28 14:37 | 32.97886 | -13.24473 | 35011 ft | 472 kts | 210° |
| 2026-04-28 14:38 | 32.91983 | -13.27882 | 35013 ft | 471 kts | 210° |
| 2026-04-28 14:38 | 32.86074 | -13.31289 | 35017 ft | 471 kts | 210° |
| 2026-04-28 14:39 | 32.80177 | -13.34684 | 35013 ft | 470 kts | 210° |
| 2026-04-28 14:39 | 32.74286 | -13.38071 | 35013 ft | 470 kts | 210° |
| 2026-04-28 14:40 | 32.68435 | -13.41430 | 35014 ft | 470 kts | 210° |
| 2026-04-28 14:40 | 32.62542 | -13.44808 | 35016 ft | 469 kts | 210° |
| 2026-04-28 14:41 | 32.56654 | -13.48178 | 35015 ft | 469 kts | 209° |
| 2026-04-28 14:41 | 32.50777 | -13.51537 | 35013 ft | 469 kts | 209° |
| 2026-04-28 14:42 | 32.44910 | -13.54886 | 35019 ft | 468 kts | 209° |
| 2026-04-28 14:42 | 32.39042 | -13.58230 | 35021 ft | 468 kts | 209° |
| 2026-04-28 14:43 | 32.33163 | -13.61576 | 35020 ft | 468 kts | 209° |
| 2026-04-28 14:43 | 32.27299 | -13.64908 | 35023 ft | 468 kts | 209° |
| 2026-04-28 14:44 | 32.21466 | -13.68218 | 35013 ft | 467 kts | 209° |
| 2026-04-28 14:44 | 32.15603 | -13.71540 | 35024 ft | 467 kts | 209° |
| 2026-04-28 14:45 | 32.09737 | -13.74859 | 35020 ft | 467 kts | 209° |
| 2026-04-28 14:45 | 32.04869 | -13.77610 | 35025 ft | 466 kts | 209° |
| 2026-04-28 14:46 | 31.99016 | -13.80912 | 35024 ft | 466 kts | 209° |
| 2026-04-28 14:46 | 31.93165 | -13.84210 | 35025 ft | 466 kts | 209° |
| 2026-04-28 14:47 | 31.87324 | -13.87497 | 35034 ft | 465 kts | 209° |
| 2026-04-28 14:47 | 31.81479 | -13.90781 | 35028 ft | 465 kts | 209° |
| 2026-04-28 14:48 | 31.75643 | -13.94056 | 35028 ft | 464 kts | 209° |
| 2026-04-28 14:48 | 31.69861 | -13.97296 | 35029 ft | 463 kts | 209° |
| 2026-04-28 14:49 | 31.64051 | -14.00547 | 35033 ft | 462 kts | 209° |
| 2026-04-28 14:49 | 31.58246 | -14.03791 | 35031 ft | 462 kts | 209° |
| 2026-04-28 14:50 | 31.52430 | -14.07037 | 35031 ft | 461 kts | 209° |
| 2026-04-28 14:50 | 31.46634 | -14.10267 | 35030 ft | 461 kts | 209° |
| 2026-04-28 14:51 | 31.40840 | -14.13491 | 35030 ft | 461 kts | 209° |
| 2026-04-28 14:51 | 31.35046 | -14.16711 | 35035 ft | 461 kts | 209° |
| 2026-04-28 14:52 | 31.29284 | -14.19909 | 35032 ft | 461 kts | 209° |
| 2026-04-28 14:52 | 31.23491 | -14.23120 | 35032 ft | 461 kts | 209° |
| 2026-04-28 14:53 | 31.17687 | -14.26332 | 35038 ft | 461 kts | 209° |
| 2026-04-28 14:53 | 31.11894 | -14.29534 | 35046 ft | 460 kts | 209° |
| 2026-04-28 14:54 | 31.06137 | -14.32712 | 35041 ft | 460 kts | 209° |
| 2026-04-28 14:54 | 31.00341 | -14.35908 | 35039 ft | 460 kts | 209° |
| 2026-04-28 14:55 | 30.94553 | -14.39095 | 35039 ft | 460 kts | 209° |
| 2026-04-28 14:55 | 30.88715 | -14.42181 | 35036 ft | 462 kts | 204° |
| 2026-04-28 14:56 | 30.82579 | -14.44508 | 35037 ft | 464 kts | 201° |
| 2026-04-28 14:56 | 30.76405 | -14.46683 | 35039 ft | 463 kts | 201° |
| 2026-04-28 14:57 | 30.70288 | -14.48875 | 35042 ft | 463 kts | 201° |
| 2026-04-28 14:57 | 30.64139 | -14.51121 | 35042 ft | 462 kts | 201° |
| 2026-04-28 14:58 | 30.58004 | -14.53376 | 35046 ft | 462 kts | 201° |
| 2026-04-28 14:58 | 30.51872 | -14.55628 | 35048 ft | 461 kts | 201° |
| 2026-04-28 14:59 | 30.45750 | -14.57872 | 35046 ft | 461 kts | 201° |
| 2026-04-28 14:59 | 30.39669 | -14.60097 | 35048 ft | 460 kts | 201° |
| 2026-04-28 15:00 | 30.33569 | -14.62325 | 35045 ft | 459 kts | 201° |
| 2026-04-28 15:00 | 30.27472 | -14.64550 | 35051 ft | 458 kts | 201° |
| 2026-04-28 15:01 | 30.21388 | -14.66767 | 35048 ft | 458 kts | 202° |
| 2026-04-28 15:01 | 30.15308 | -14.68979 | 35050 ft | 457 kts | 202° |
| 2026-04-28 15:02 | 30.09236 | -14.71186 | 35033 ft | 457 kts | 201° |
| 2026-04-28 15:02 | 30.03197 | -14.73379 | 35043 ft | 457 kts | 201° |
| 2026-04-28 15:03 | 29.97078 | -14.75598 | 35044 ft | 458 kts | 201° |
| 2026-04-28 15:03 | 29.91026 | -14.77789 | 35043 ft | 459 kts | 201° |
| 2026-04-28 15:04 | 29.84931 | -14.79993 | 35044 ft | 460 kts | 201° |
| 2026-04-28 15:04 | 29.78818 | -14.82201 | 35043 ft | 460 kts | 201° |
| 2026-04-28 15:05 | 29.72709 | -14.84404 | 35043 ft | 460 kts | 201° |
| 2026-04-28 15:05 | 29.69636 | -14.85511 | 34898 ft | 463 kts | 201° |
| 2026-04-28 15:05 | 29.66554 | -14.86622 | 34519 ft | 462 kts | 201° |
| 2026-04-28 15:05 | 29.63503 | -14.87718 | 34104 ft | 457 kts | 201° |
| 2026-04-28 15:06 | 29.60516 | -14.88791 | 33638 ft | 454 kts | 201° |
| 2026-04-28 15:06 | 29.57499 | -14.89874 | 33176 ft | 450 kts | 201° |
| 2026-04-28 15:06 | 29.54528 | -14.90940 | 32732 ft | 446 kts | 201° |
| 2026-04-28 15:06 | 29.51582 | -14.91997 | 32309 ft | 442 kts | 201° |
| 2026-04-28 15:07 | 29.48649 | -14.93049 | 31886 ft | 439 kts | 201° |
| 2026-04-28 15:07 | 29.45747 | -14.94090 | 31472 ft | 435 kts | 201° |
| 2026-04-28 15:07 | 29.42897 | -14.95112 | 31058 ft | 432 kts | 201° |
| 2026-04-28 15:07 | 29.40034 | -14.96137 | 30648 ft | 429 kts | 201° |
| 2026-04-28 15:08 | 29.37194 | -14.97154 | 30242 ft | 427 kts | 201° |
| 2026-04-28 15:08 | 29.34365 | -14.98166 | 29791 ft | 424 kts | 201° |
| 2026-04-28 15:08 | 29.31561 | -14.99169 | 29321 ft | 421 kts | 201° |
| 2026-04-28 15:08 | 29.28768 | -15.00167 | 28876 ft | 417 kts | 201° |
| 2026-04-28 15:09 | 29.26013 | -15.01150 | 28465 ft | 413 kts | 201° |
| 2026-04-28 15:09 | 29.23279 | -15.02125 | 28034 ft | 410 kts | 201° |
| 2026-04-28 15:09 | 29.20565 | -15.03094 | 27616 ft | 407 kts | 201° |
| 2026-04-28 15:09 | 29.18782 | -15.03729 | 27345 ft | 405 kts | 201° |
| 2026-04-28 15:10 | 29.15195 | -15.05008 | 26803 ft | 401 kts | 201° |
| 2026-04-28 15:10 | 29.12540 | -15.05954 | 26403 ft | 398 kts | 201° |
| 2026-04-28 15:10 | 29.09897 | -15.06895 | 26000 ft | 396 kts | 201° |
| 2026-04-28 15:10 | 29.07269 | -15.07830 | 25598 ft | 393 kts | 201° |
| 2026-04-28 15:11 | 29.04666 | -15.08755 | 25208 ft | 391 kts | 201° |
| 2026-04-28 15:11 | 29.02067 | -15.09679 | 24805 ft | 390 kts | 200° |
| 2026-04-28 15:11 | 28.99480 | -15.10598 | 24400 ft | 388 kts | 200° |
| 2026-04-28 15:11 | 28.96937 | -15.11501 | 24010 ft | 387 kts | 200° |
| 2026-04-28 15:12 | 28.94367 | -15.12413 | 23587 ft | 386 kts | 200° |
| 2026-04-28 15:12 | 28.91810 | -15.13321 | 23141 ft | 385 kts | 200° |
| 2026-04-28 15:12 | 28.89260 | -15.14224 | 22715 ft | 382 kts | 200° |
| 2026-04-28 15:12 | 28.86725 | -15.15122 | 22311 ft | 379 kts | 200° |
| 2026-04-28 15:13 | 28.84218 | -15.16009 | 21915 ft | 377 kts | 200° |
| 2026-04-28 15:13 | 28.81721 | -15.16893 | 21525 ft | 374 kts | 200° |
| 2026-04-28 15:13 | 28.79241 | -15.17771 | 21143 ft | 372 kts | 200° |
| 2026-04-28 15:13 | 28.76776 | -15.18642 | 20760 ft | 369 kts | 200° |
| 2026-04-28 15:14 | 28.74333 | -15.19506 | 20377 ft | 367 kts | 200° |
| 2026-04-28 15:14 | 28.71891 | -15.20369 | 20003 ft | 365 kts | 200° |
| 2026-04-28 15:14 | 28.69467 | -15.21225 | 19624 ft | 363 kts | 199° |
| 2026-04-28 15:14 | 28.67051 | -15.22078 | 19253 ft | 362 kts | 199° |
| 2026-04-28 15:15 | 28.64650 | -15.22925 | 18868 ft | 360 kts | 199° |
| 2026-04-28 15:15 | 28.63064 | -15.23484 | 18617 ft | 360 kts | 199° |
| 2026-04-28 15:15 | 28.59902 | -15.24598 | 18092 ft | 358 kts | 199° |
| 2026-04-28 15:15 | 28.57526 | -15.25434 | 17682 ft | 356 kts | 199° |
| 2026-04-28 15:16 | 28.55157 | -15.26268 | 17297 ft | 354 kts | 199° |
| 2026-04-28 15:16 | 28.52804 | -15.27096 | 16919 ft | 352 kts | 199° |
| 2026-04-28 15:16 | 28.50473 | -15.27916 | 16549 ft | 349 kts | 199° |
| 2026-04-28 15:16 | 28.48165 | -15.28727 | 16183 ft | 347 kts | 199° |
| 2026-04-28 15:17 | 28.45857 | -15.29539 | 15813 ft | 345 kts | 199° |
| 2026-04-28 15:17 | 28.43576 | -15.30340 | 15463 ft | 342 kts | 199° |
| 2026-04-28 15:17 | 28.41305 | -15.31138 | 15105 ft | 340 kts | 199° |
| 2026-04-28 15:17 | 28.39046 | -15.31932 | 14730 ft | 339 kts | 199° |
| 2026-04-28 15:18 | 28.36830 | -15.32710 | 14389 ft | 337 kts | 199° |
| 2026-04-28 15:18 | 28.34620 | -15.33485 | 14259 ft | 328 kts | 199° |
| 2026-04-28 15:18 | 28.32460 | -15.34207 | 14098 ft | 321 kts | 193° |
| 2026-04-28 15:18 | 28.30241 | -15.34259 | 13871 ft | 319 kts | 173° |
| 2026-04-28 15:19 | 28.28077 | -15.33803 | 13621 ft | 315 kts | 171° |
| 2026-04-28 15:19 | 28.25935 | -15.33297 | 13348 ft | 312 kts | 170° |
| 2026-04-28 15:19 | 28.23819 | -15.32788 | 13096 ft | 310 kts | 170° |
| 2026-04-28 15:19 | 28.21716 | -15.32286 | 12851 ft | 310 kts | 171° |
| 2026-04-28 15:20 | 28.19595 | -15.31786 | 12612 ft | 311 kts | 171° |
| 2026-04-28 15:20 | 28.17470 | -15.31291 | 12367 ft | 312 kts | 171° |
| 2026-04-28 15:20 | 28.15366 | -15.30806 | 12123 ft | 312 kts | 171° |
| 2026-04-28 15:20 | 28.13235 | -15.30315 | 11874 ft | 313 kts | 171° |
| 2026-04-28 15:21 | 28.11098 | -15.29825 | 11629 ft | 313 kts | 171° |
| 2026-04-28 15:21 | 28.08953 | -15.29334 | 11375 ft | 313 kts | 171° |
| 2026-04-28 15:21 | 28.06828 | -15.28848 | 11125 ft | 309 kts | 171° |
| 2026-04-28 15:21 | 28.04731 | -15.28369 | 10882 ft | 306 kts | 171° |
| 2026-04-28 15:22 | 28.02657 | -15.27896 | 10645 ft | 303 kts | 171° |
| 2026-04-28 15:22 | 28.00588 | -15.27425 | 10410 ft | 302 kts | 171° |
| 2026-04-28 15:22 | 27.98542 | -15.26960 | 10174 ft | 299 kts | 171° |
| 2026-04-28 15:22 | 27.96508 | -15.26497 | 9935 ft | 296 kts | 171° |
| 2026-04-28 15:23 | 27.94498 | -15.26039 | 9688 ft | 293 kts | 171° |
| 2026-04-28 15:23 | 27.92531 | -15.25592 | 9444 ft | 291 kts | 171° |
| 2026-04-28 15:23 | 27.90560 | -15.25144 | 9207 ft | 287 kts | 171° |
| 2026-04-28 15:23 | 27.88604 | -15.24700 | 8987 ft | 285 kts | 171° |
| 2026-04-28 15:24 | 27.86666 | -15.24260 | 8757 ft | 284 kts | 171° |
| 2026-04-28 15:24 | 27.84726 | -15.23819 | 8542 ft | 284 kts | 171° |
| 2026-04-28 15:24 | 27.82784 | -15.23378 | 8320 ft | 283 kts | 171° |
| 2026-04-28 15:24 | 27.80858 | -15.22941 | 8092 ft | 282 kts | 170° |
| 2026-04-28 15:25 | 27.78941 | -15.22506 | 7872 ft | 280 kts | 170° |
| 2026-04-28 15:25 | 27.77052 | -15.22078 | 7660 ft | 279 kts | 170° |
| 2026-04-28 15:25 | 27.75140 | -15.21800 | 7418 ft | 277 kts | 187° |
| 2026-04-28 15:25 | 27.73358 | -15.22478 | 7221 ft | 269 kts | 217° |
| 2026-04-28 15:26 | 27.72064 | -15.23969 | 7031 ft | 266 kts | 240° |
| 2026-04-28 15:26 | 27.71346 | -15.25873 | 6835 ft | 264 kts | 256° |
| 2026-04-28 15:26 | 27.70862 | -15.27864 | 6619 ft | 263 kts | 257° |
| 2026-04-28 15:26 | 27.70397 | -15.29860 | 6349 ft | 261 kts | 257° |
| 2026-04-28 15:27 | 27.69937 | -15.31825 | 6131 ft | 257 kts | 257° |
| 2026-04-28 15:27 | 27.69477 | -15.33761 | 5915 ft | 254 kts | 257° |
| 2026-04-28 15:27 | 27.69021 | -15.35670 | 5713 ft | 250 kts | 257° |
| 2026-04-28 15:27 | 27.68568 | -15.37550 | 5515 ft | 247 kts | 256° |
| 2026-04-28 15:28 | 27.68118 | -15.39407 | 5316 ft | 243 kts | 256° |
| 2026-04-28 15:28 | 27.67674 | -15.41233 | 5125 ft | 239 kts | 256° |
| 2026-04-28 15:28 | 27.67242 | -15.43002 | 4940 ft | 235 kts | 256° |
| 2026-04-28 15:28 | 27.66811 | -15.44766 | 4755 ft | 231 kts | 256° |
| 2026-04-28 15:29 | 27.66390 | -15.46495 | 4571 ft | 227 kts | 258° |
| 2026-04-28 15:29 | 27.66467 | -15.48212 | 4366 ft | 219 kts | 299° |
| 2026-04-28 15:29 | 27.67545 | -15.49342 | 4241 ft | 216 kts | 342° |
| 2026-04-28 15:29 | 27.69027 | -15.49321 | 4103 ft | 218 kts | 17° |
| 2026-04-28 15:30 | 27.70472 | -15.48728 | 3941 ft | 224 kts | 19° |
| 2026-04-28 15:30 | 27.71943 | -15.48096 | 3776 ft | 225 kts | 20° |
| 2026-04-28 15:30 | 27.73373 | -15.47464 | 3567 ft | 217 kts | 20° |
| 2026-04-28 15:30 | 27.74755 | -15.46849 | 3384 ft | 209 kts | 20° |
| 2026-04-28 15:31 | 27.75641 | -15.46455 | 3265 ft | 203 kts | 20° |
| 2026-04-28 15:31 | 27.77335 | -15.45701 | 3129 ft | 193 kts | 20° |
| 2026-04-28 15:31 | 27.78594 | -15.45143 | 2877 ft | 197 kts | 20° |
| 2026-04-28 15:31 | 27.79857 | -15.44582 | 2627 ft | 193 kts | 20° |
| 2026-04-28 15:32 | 27.81097 | -15.44030 | 2390 ft | 194 kts | 20° |
| 2026-04-28 15:32 | 27.81944 | -15.43655 | 2192 ft | 196 kts | 20° |
| 2026-04-28 15:32 | 27.83183 | -15.43105 | 1937 ft | 186 kts | 20° |
| 2026-04-28 15:32 | 27.84748 | -15.42409 | 1607 ft | 176 kts | 20° |
| 2026-04-28 15:33 | 27.85489 | -15.42080 | 1465 ft | 168 kts | 19° |
| 2026-04-28 15:33 | 27.86544 | -15.41612 | 1222 ft | 156 kts | 20° |
| 2026-04-28 15:33 | 27.87515 | -15.41181 | 1044 ft | 146 kts | 21° |
| 2026-04-28 15:33 | 27.88464 | -15.40761 | 840 ft | 145 kts | 22° |
| 2026-04-28 15:34 | 27.89403 | -15.40343 | 671 ft | 146 kts | 23° |
| 2026-04-28 15:34 | 27.90620 | -15.39798 | 401 ft | 140 kts | 24° |
| 2026-04-28 15:34 | 27.91530 | -15.39392 | 202 ft | 140 kts | 24° |
| 2026-04-28 15:34 | 27.92128 | -15.39127 | 90 ft | 137 kts | 24° |
| 2026-04-28 15:35 | 27.92911 | -15.38781 | 63 ft | 94 kts | 22° |
| 2026-04-28 15:35 | 27.93592 | -15.38480 | 55 ft | 32 kts | 22° |
| 2026-04-28 15:35 | 27.93776 | -15.38424 | 57 ft | 25 kts | 7° |
| 2026-04-28 15:36 | 27.93932 | -15.38439 | 67 ft | 17 kts | 351° |
| 2026-04-28 15:36 | 27.94021 | -15.38466 | 64 ft | 13 kts | 323° |
| 2026-04-28 15:36 | 27.94065 | -15.38551 | 71 ft | 12 kts | 291° |
| 2026-04-28 15:36 | 27.94057 | -15.38630 | 81 ft | 11 kts | 219° |
| 2026-04-28 15:37 | 27.93985 | -15.38664 | 83 ft | 11 kts | 201° |
| 2026-04-28 15:37 | 27.93914 | -15.38696 | 85 ft | 11 kts | 201° |
| 2026-04-28 15:37 | 27.93842 | -15.38728 | 84 ft | 12 kts | 201° |
| 2026-04-28 15:37 | 27.93759 | -15.38764 | 83 ft | 14 kts | 201° |
| 2026-04-28 15:38 | 27.93681 | -15.38798 | 83 ft | 8 kts | 201° |
| 2026-04-28 15:38 | 27.93669 | -15.38838 | 83 ft | 6 kts | 288° |
| 2026-04-28 15:38 | 27.93682 | -15.38875 | 86 ft | 4 kts | 291° |
| 2026-04-28 15:38 | 27.93687 | -15.38890 | 84 ft | 1 kts | 291° |